Time;durP1;ratioP1;P1;durP2;ratioP2;P2;SDS_P1;SDS_P2;PMS_P1;PMS_P2;Temp;Humidity;BMP_temperature;BMP_pressure;BME280_temperature;BME280_humidity;BME280_pressure;Samples;Min_cycle;Max_cycle;Signal;HPM_P1;HPM_P2
2022/03/17 00:03:59;;;;;;;86.90;45.30;;;;;;;4.01;93.05;101991.55;3714317;77;32125;-82
2022/03/17 00:09:01;;;;;;;75.90;39.27;;;;;;;3.93;93.49;101991.41;3764672;77;98780;-81
2022/03/17 00:14:01;;;;;;;78.43;42.23;;;;;;;3.85;94.22;101984.70;3809076;76;98682;-82
2022/03/17 00:19:07;;;;;;;82.00;38.93;;;;;;;3.81;94.62;101980.95;3760952;77;98875;-82
2022/03/17 00:24:07;;;;;;;81.13;41.33;;;;;;;3.77;94.84;101979.91;3788960;76;99188;-81
2022/03/17 00:29:09;;;;;;;82.85;42.90;;;;;;;3.74;95.05;101983.77;3746558;77;98861;-82
2022/03/17 00:34:10;;;;;;;77.92;37.63;;;;;;;3.72;94.79;101990.08;3770615;77;32122;-83
2022/03/17 00:39:11;;;;;;;74.23;39.70;;;;;;;3.66;94.99;101990.69;3766757;76;98716;-83
2022/03/17 00:44:12;;;;;;;79.53;40.30;;;;;;;3.61;95.23;101990.75;3829277;76;98588;-82
2022/03/17 00:49:13;;;;;;;78.60;40.17;;;;;;;3.58;95.07;101989.17;3750533;77;98815;-83
2022/03/17 00:54:14;;;;;;;80.20;39.67;;;;;;;3.51;95.41;101994.17;3769681;77;99484;-83
2022/03/17 00:59:15;;;;;;;81.93;41.57;;;;;;;3.45;95.95;101989.89;3696695;75;98810;-82
2022/03/17 01:04:16;;;;;;;80.47;39.10;;;;;;;3.37;95.73;101994.06;3725516;77;31585;-82
2022/03/17 01:09:17;;;;;;;77.37;40.07;;;;;;;3.32;95.60;101990.59;3709335;78;98887;-83
2022/03/17 01:14:18;;;;;;;85.20;45.17;;;;;;;3.25;95.73;101988.77;3730955;77;98817;-83
2022/03/17 01:19:19;;;;;;;109.27;55.57;;;;;;;3.20;95.94;101986.94;3657699;78;98871;-82
2022/03/17 01:24:21;;;;;;;90.30;44.00;;;;;;;3.13;96.06;101967.44;3683568;78;99415;-83
2022/03/17 01:29:23;;;;;;;85.00;43.30;;;;;;;3.04;97.02;101954.20;3713181;77;99404;-82
2022/03/17 01:34:24;;;;;;;85.93;42.30;;;;;;;3.02;97.94;101955.59;3728763;75;99172;-83
2022/03/17 01:39:25;;;;;;;83.50;42.50;;;;;;;2.98;97.81;101958.63;3706919;79;98874;-82
2022/03/17 01:44:27;;;;;;;79.33;42.30;;;;;;;2.95;98.30;101966.02;3719042;77;98599;-82
2022/03/17 01:49:27;;;;;;;79.80;43.60;;;;;;;2.94;97.75;101972.53;3708858;77;99317;-82
2022/03/17 01:54:29;;;;;;;83.53;42.43;;;;;;;2.90;97.80;101964.71;3739800;77;98810;-82
2022/03/17 01:59:32;;;;;;;82.93;39.17;;;;;;;2.86;97.83;101969.92;3776117;77;98857;-82
2022/03/17 02:04:33;;;;;;;79.30;41.53;;;;;;;2.83;97.28;101968.30;3790165;76;98880;-82
2022/03/17 02:09:35;;;;;;;80.83;40.53;;;;;;;2.77;98.28;101958.05;3786268;77;98997;-83
2022/03/17 02:14:55;;;;;;;86.40;42.15;;;;;;;2.76;98.06;101959.15;3725913;78;98640;-83
2022/03/17 02:19:58;;;;;;;86.57;43.55;;;;;;;2.79;98.85;101970.80;3734828;78;98584;-84
2022/03/17 02:30:21;;;;;;;95.75;48.98;;;;;;;2.88;99.56;101947.86;3734340;76;98834;-83
2022/03/17 02:35:23;;;;;;;86.72;43.92;;;;;;;2.90;99.50;101949.19;3694562;79;98777;-82
2022/03/17 02:40:25;;;;;;;90.75;44.38;;;;;;;2.91;99.43;101943.21;3796143;77;98885;-81
2022/03/17 02:45:26;;;;;;;83.67;44.25;;;;;;;2.88;99.13;101959.55;3850241;75;33039;-82
2022/03/17 02:50:27;;;;;;;86.20;45.23;;;;;;;2.87;98.97;101958.48;3771516;76;98648;-83
2022/03/17 02:55:28;;;;;;;88.10;45.80;;;;;;;2.81;98.93;101963.17;3761999;77;98743;-82
2022/03/17 03:00:30;;;;;;;84.37;43.77;;;;;;;2.80;98.60;101975.69;3789130;76;98818;-83
2022/03/17 03:05:31;;;;;;;83.60;43.83;;;;;;;2.78;98.38;101975.18;3799888;75;98822;-84
2022/03/17 03:10:33;;;;;;;91.87;46.27;;;;;;;2.73;98.38;101975.23;3788010;76;98938;-82
2022/03/17 03:15:34;;;;;;;89.43;45.27;;;;;;;2.70;98.45;101973.89;3777877;76;31697;-83
2022/03/17 03:20:35;;;;;;;84.17;44.20;;;;;;;2.66;98.43;101965.22;3788562;75;98527;-83
2022/03/17 03:25:36;;;;;;;91.87;44.63;;;;;;;2.59;98.60;101964.22;3784550;77;99338;-83
2022/03/17 03:30:38;;;;;;;87.92;45.28;;;;;;;2.56;98.47;101968.86;3779415;77;98752;-83
2022/03/17 03:40:59;;;;;;;86.35;45.28;;;;;;;2.47;98.30;101982.00;3783157;76;98884;-83
2022/03/17 03:46:00;;;;;;;87.63;46.37;;;;;;;2.38;98.40;101981.80;3749168;77;26213;-83
2022/03/17 03:51:01;;;;;;;95.57;47.07;;;;;;;2.32;98.42;101988.91;3771763;76;98614;-82
2022/03/17 03:56:02;;;;;;;93.87;46.53;;;;;;;2.24;98.68;101983.53;3786366;77;99115;-82
2022/03/17 04:01:03;;;;;;;92.07;45.83;;;;;;;2.23;98.69;101987.89;3666086;79;98786;-83
2022/03/17 04:06:04;;;;;;;86.07;44.33;;;;;;;2.22;99.28;101990.34;3640576;80;99165;-82
2022/03/17 04:11:05;;;;;;;96.63;46.20;;;;;;;2.18;98.96;101992.03;3695639;79;98758;-82
2022/03/17 04:16:06;;;;;;;91.77;44.57;;;;;;;2.13;99.36;101996.93;3724135;79;29863;-83
2022/03/17 04:21:07;;;;;;;91.43;42.17;;;;;;;2.09;99.18;102001.30;3706538;78;98637;-83
2022/03/17 04:26:08;;;;;;;95.23;46.43;;;;;;;2.07;99.19;102004.06;3707914;78;98650;-83
2022/03/17 04:31:10;;;;;;;89.83;46.00;;;;;;;2.03;99.13;102013.29;3707532;78;98769;-83
2022/03/17 04:36:11;;;;;;;93.30;46.02;;;;;;;1.99;98.78;102016.33;3725830;78;98891;-84
2022/03/17 04:41:12;;;;;;;100.70;48.40;;;;;;;1.95;98.58;102023.41;3701770;78;98853;-82
2022/03/17 04:46:13;;;;;;;98.60;48.27;;;;;;;1.92;98.42;102027.23;3689335;78;35307;-83
2022/03/17 04:51:14;;;;;;;95.93;48.63;;;;;;;1.84;98.73;102021.84;3694022;78;98970;-83
2022/03/17 04:56:19;;;;;;;94.37;48.37;;;;;;;1.80;98.78;102022.12;3731540;78;98566;-83
2022/03/17 05:01:20;;;;;;;98.42;49.23;;;;;;;1.77;98.61;102035.45;3711491;77;98838;-83
2022/03/17 05:06:21;;;;;;;93.00;45.57;;;;;;;1.71;98.64;102045.51;3738218;77;98776;-83
2022/03/17 05:11:22;;;;;;;96.33;48.40;;;;;;;1.67;98.77;102053.96;3715852;79;99169;-83
2022/03/17 05:16:23;;;;;;;97.12;49.10;;;;;;;1.64;98.81;102055.87;3783556;77;98808;-82
2022/03/17 05:21:25;;;;;;;99.17;49.00;;;;;;;1.64;98.55;102060.50;3731572;79;98744;-83
2022/03/17 05:26:26;;;;;;;99.30;49.90;;;;;;;1.66;98.50;102069.16;3770547;77;98744;-83
2022/03/17 05:31:27;;;;;;;99.37;49.27;;;;;;;1.64;98.74;102068.08;3695942;77;99332;-83
2022/03/17 05:36:28;;;;;;;101.90;49.20;;;;;;;1.66;98.60;102077.30;3712069;79;98894;-84
2022/03/17 05:41:29;;;;;;;103.37;49.10;;;;;;;1.70;98.72;102086.52;3743238;77;98959;-83
2022/03/17 05:46:30;;;;;;;98.40;50.33;;;;;;;1.75;99.06;102101.44;3761422;78;99065;-84
2022/03/17 05:51:31;;;;;;;98.07;52.63;;;;;;;1.80;99.03;102104.92;3720581;77;98616;-83
2022/03/17 05:56:32;;;;;;;104.90;52.47;;;;;;;1.88;99.14;102106.25;3713920;77;98861;-83
2022/03/17 06:01:34;;;;;;;102.20;52.60;;;;;;;1.97;98.91;102104.59;3817775;75;99380;-83
2022/03/17 06:06:35;;;;;;;97.20;52.13;;;;;;;2.08;98.75;102100.73;3735204;77;99442;-82
2022/03/17 06:11:36;;;;;;;102.23;54.07;;;;;;;2.20;98.59;102109.34;3766147;77;99267;-84
2022/03/17 06:16:37;;;;;;;99.27;51.30;;;;;;;2.32;98.39;102103.84;3769791;76;98952;-83
2022/03/17 06:21:38;;;;;;;105.33;52.87;;;;;;;2.45;98.22;102106.45;3770732;76;34902;-83
2022/03/17 06:26:39;;;;;;;98.60;53.93;;;;;;;2.59;97.67;102097.94;3769639;76;99229;-84
2022/03/17 06:31:40;;;;;;;105.20;57.80;;;;;;;2.71;97.48;102095.13;3779479;76;99127;-84
2022/03/17 06:36:41;;;;;;;113.13;57.70;;;;;;;2.95;96.96;102106.07;3769061;77;105865;-84
2022/03/17 06:41:43;;;;;;;107.90;56.23;;;;;;;3.14;96.43;102108.33;3823894;75;99294;-81
2022/03/17 06:46:43;;;;;;;100.27;52.33;;;;;;;3.35;96.33;102103.77;3763811;77;99125;-81
2022/03/17 06:51:45;;;;;;;103.10;54.83;;;;;;;3.59;96.05;102113.28;3781381;77;32370;-81
2022/03/17 06:56:45;;;;;;;102.93;53.70;;;;;;;3.82;95.25;102100.23;3768023;77;99210;-81
2022/03/17 07:01:46;;;;;;;98.67;52.70;;;;;;;4.09;94.41;102105.30;3791051;77;99331;-81
2022/03/17 07:06:47;;;;;;;99.50;55.63;;;;;;;4.29;93.89;102109.13;3775916;76;98821;-81
2022/03/17 07:11:49;;;;;;;101.70;55.63;;;;;;;4.51;93.40;102097.61;3779348;77;99222;-81
2022/03/17 07:16:50;;;;;;;109.53;57.40;;;;;;;4.72;92.76;102103.00;3770293;77;99029;-81
2022/03/17 07:21:53;;;;;;;109.63;57.90;;;;;;;4.95;91.84;102104.79;3788960;77;32541;-82
2022/03/17 07:26:54;;;;;;;97.80;55.83;;;;;;;5.12;90.71;102110.52;3829939;75;98873;-76
2022/03/17 07:31:56;;;;;;;101.80;55.77;;;;;;;5.32;90.16;102118.33;3758960;77;98663;-76
2022/03/17 07:36:58;;;;;;;102.22;55.03;;;;;;;5.50;89.81;102128.36;3751746;77;99509;-78
2022/03/17 07:41:59;;;;;;;95.33;53.20;;;;;;;5.70;89.32;102127.43;3756868;76;99464;-77
2022/03/17 07:47:00;;;;;;;92.40;52.48;;;;;;;5.89;88.60;102136.35;3780124;76;99372;-78
2022/03/17 07:52:02;;;;;;;94.17;55.33;;;;;;;6.07;88.00;102126.42;3782179;76;26284;-77
2022/03/17 07:57:04;;;;;;;101.65;53.25;;;;;;;6.24;87.12;102125.23;3750786;76;99031;-78
2022/03/17 08:02:06;;;;;;;85.38;49.15;;;;;;;6.41;86.31;102131.69;3718208;78;98754;-77
2022/03/17 08:07:07;;;;;;;102.15;51.55;;;;;;;6.63;85.73;102141.84;3700002;77;98899;-78
2022/03/17 08:12:09;;;;;;;91.27;49.57;;;;;;;6.85;84.72;102153.62;3710034;77;98942;-76
2022/03/17 08:17:10;;;;;;;88.17;50.70;;;;;;;7.01;83.58;102158.98;3738226;77;98834;-76
2022/03/17 08:22:11;;;;;;;87.02;49.88;;;;;;;7.19;81.68;102166.19;3761846;77;34903;-75
2022/03/17 08:27:12;;;;;;;82.20;46.95;;;;;;;7.34;81.44;102169.09;3731508;77;99172;-75
2022/03/17 08:32:13;;;;;;;78.97;44.87;;;;;;;7.53;80.25;102162.85;3704796;77;99405;-77
2022/03/17 08:37:14;;;;;;;84.63;48.70;;;;;;;7.68;78.83;102170.67;3706240;77;98756;-76
2022/03/17 08:42:16;;;;;;;80.83;49.23;;;;;;;7.83;77.52;102168.31;3722257;77;98770;-76
2022/03/17 08:52:36;;;;;;;75.80;46.28;;;;;;;8.23;75.40;102171.87;3729824;77;98849;-77
2022/03/17 08:57:37;;;;;;;76.83;45.57;;;;;;;8.40;75.49;102157.60;3700052;77;98548;-75
2022/03/17 09:02:39;;;;;;;77.40;45.90;;;;;;;8.60;74.38;102163.03;3699383;79;99102;-76
2022/03/17 09:07:41;;;;;;;73.20;43.58;;;;;;;8.78;73.77;102162.72;3712299;78;98897;-80
2022/03/17 09:12:42;;;;;;;77.85;43.63;;;;;;;8.96;73.26;102157.48;3713134;78;98936;-80
2022/03/17 09:17:43;;;;;;;74.50;43.93;;;;;;;9.09;72.04;102147.43;3705708;76;98845;-79
2022/03/17 09:22:44;;;;;;;76.00;44.60;;;;;;;9.25;69.47;102147.16;3734663;78;99097;-81
2022/03/17 09:27:45;;;;;;;65.60;40.43;;;;;;;9.38;69.67;102144.22;3703502;78;98899;-80
2022/03/17 09:32:47;;;;;;;66.13;39.70;;;;;;;9.50;68.37;102141.63;3745711;77;98640;-80
2022/03/17 09:37:49;;;;;;;68.97;42.00;;;;;;;9.69;68.65;102148.08;3683162;77;99063;-80
2022/03/17 09:43:18;;;;;;;61.73;38.13;;;;;;;9.76;66.39;102151.16;3700959;78;99274;-80
2022/03/17 09:47:53;;;;;;;60.70;36.08;;;;;;;9.85;65.16;102149.15;3683957;78;99064;-80
2022/03/17 09:52:54;;;;;;;60.53;35.93;;;;;;;10.01;65.33;102145.52;3688727;78;99519;-80
2022/03/17 09:57:56;;;;;;;55.83;33.25;;;;;;;10.20;64.29;102148.67;3679388;78;98866;-81
2022/03/17 10:02:57;;;;;;;54.77;33.57;;;;;;;10.31;63.32;102150.48;3715111;77;99588;-80
2022/03/17 10:07:58;;;;;;;50.73;29.10;;;;;;;10.45;62.61;102149.65;3722239;76;98950;-80
2022/03/17 10:13:16;;;;;;;55.57;30.53;;;;;;;10.52;61.70;102152.11;3710186;78;99644;-80
2022/03/17 10:18:26;;;;;;;43.05;26.23;;;;;;;10.68;60.69;102146.23;3715119;78;99584;-81
2022/03/17 10:23:27;;;;;;;38.30;19.25;;;;;;;10.81;59.57;102155.37;3727212;78;99671;-81
2022/03/17 10:28:28;;;;;;;48.13;23.20;;;;;;;10.86;56.69;102148.28;3708232;78;99622;-80
2022/03/17 10:33:29;;;;;;;42.20;22.57;;;;;;;10.93;57.60;102156.25;3715391;78;30132;-81
2022/03/17 10:38:36;;;;;;;40.70;23.77;;;;;;;11.07;56.95;102161.47;3697912;78;99459;-80
2022/03/17 10:43:42;;;;;;;42.10;23.98;;;;;;;11.20;55.53;102170.01;3724361;75;99225;-81
2022/03/17 10:49:01;;;;;;;39.18;23.05;;;;;;;11.28;56.12;102156.73;3744956;76;99738;-81
2022/03/17 10:54:09;;;;;;;47.90;26.82;;;;;;;11.40;56.41;102158.14;3767639;76;99222;-79
2022/03/17 10:59:10;;;;;;;37.05;23.80;;;;;;;11.43;55.02;102156.06;3766970;76;99585;-79
2022/03/17 11:04:12;;;;;;;39.40;23.57;;;;;;;11.56;55.68;102164.02;3743734;76;29107;-79
2022/03/17 11:09:13;;;;;;;38.90;21.53;;;;;;;11.66;55.68;102170.52;3788922;76;99006;-79
2022/03/17 11:14:15;;;;;;;34.88;20.20;;;;;;;11.79;55.68;102163.06;3793665;76;99362;-79
2022/03/17 11:19:20;;;;;;;36.97;17.83;;;;;;;11.89;53.96;102165.38;3750470;77;99670;-78
2022/03/17 11:24:23;;;;;;;28.70;17.03;;;;;;;11.87;53.21;102161.58;3753654;77;99156;-80
2022/03/17 11:29:25;;;;;;;34.88;17.42;;;;;;;11.77;51.46;102169.52;3745054;77;99630;-80
2022/03/17 11:34:46;;;;;;;31.20;17.87;;;;;;;11.76;50.98;102176.97;3776716;77;99606;-78
2022/03/17 11:40:11;;;;;;;27.93;16.00;;;;;;;11.73;51.25;102176.86;3759527;77;99034;-80
2022/03/17 11:45:20;;;;;;;36.48;18.62;;;;;;;11.84;51.05;102179.40;3772707;77;99385;-81
2022/03/17 11:50:32;;;;;;;33.70;19.42;;;;;;;11.86;50.10;102177.91;3787261;76;99368;-80
2022/03/17 11:55:52;;;;;;;31.73;17.52;;;;;;;11.78;48.48;102181.56;3779596;76;99167;-80
2022/03/17 12:01:11;;;;;;;32.05;18.70;;;;;;;11.69;49.11;102168.47;3752454;77;99482;-79
2022/03/17 12:06:27;;;;;;;30.65;18.25;;;;;;;11.60;48.79;102164.17;3743315;77;99853;-80
2022/03/17 12:11:44;;;;;;;28.27;17.87;;;;;;;11.55;48.02;102163.80;3742716;77;99627;-80
2022/03/17 12:17:08;;;;;;;31.35;18.75;;;;;;;11.55;47.44;102156.11;3735075;78;99539;-80
2022/03/17 12:22:13;;;;;;;32.60;19.05;;;;;;;11.49;47.58;102143.11;3756456;77;34842;-82
2022/03/17 12:27:35;;;;;;;35.40;20.37;;;;;;;11.46;47.07;102140.23;3734337;77;99279;-80
2022/03/17 12:32:50;;;;;;;34.40;20.17;;;;;;;11.45;47.46;102141.38;3750245;76;99076;-80
2022/03/17 12:38:01;;;;;;;35.17;20.37;;;;;;;11.49;47.76;102147.24;3723897;77;99372;-81
2022/03/17 12:43:17;;;;;;;30.85;18.85;;;;;;;11.56;47.95;102150.83;3758806;78;99490;-81
2022/03/17 12:48:21;;;;;;;28.60;17.57;;;;;;;11.57;47.91;102152.43;3740612;77;99161;-81
2022/03/17 12:53:22;;;;;;;30.95;16.95;;;;;;;11.51;46.52;102146.31;3742161;77;99224;-80
2022/03/17 12:58:24;;;;;;;32.47;17.63;;;;;;;11.48;46.93;102144.81;3753428;77;99666;-79
2022/03/17 13:03:25;;;;;;;30.48;17.48;;;;;;;11.42;45.72;102148.38;3785944;76;34770;-81
2022/03/17 13:08:28;;;;;;;29.67;15.97;;;;;;;11.46;46.27;102143.77;3770052;76;99276;-80
2022/03/17 13:18:51;;;;;;;28.23;15.58;;;;;;;11.39;45.09;102146.30;3771469;76;99615;-80
2022/03/17 13:23:52;;;;;;;27.20;15.50;;;;;;;11.31;44.51;102139.50;3792263;76;99161;-81
2022/03/17 13:29:06;;;;;;;28.53;16.27;;;;;;;11.35;45.45;102140.43;3780510;77;99112;-80
2022/03/17 13:34:07;;;;;;;27.77;16.45;;;;;;;11.27;44.66;102136.62;3776862;76;34775;-80
2022/03/17 13:39:12;;;;;;;29.07;16.10;;;;;;;11.19;44.21;102143.59;3834873;75;99452;-81
2022/03/17 13:44:13;;;;;;;32.85;17.32;;;;;;;11.14;43.85;102147.94;3788617;77;99081;-80
2022/03/17 13:49:26;;;;;;;34.53;17.40;;;;;;;11.09;43.57;102142.08;3764705;77;99545;-81
2022/03/17 13:54:20;;;;;;;25.55;14.35;;;;;;;11.09;43.73;102152.28;3780532;77;99261;-80
2022/03/17 13:59:22;;;;;;;24.33;15.73;;;;;;;11.08;44.82;102143.79;3781761;76;99255;-80
2022/03/17 14:04:28;;;;;;;32.70;15.85;;;;;;;11.07;44.58;102144.34;3762706;77;99152;-79
2022/03/17 14:09:29;;;;;;;24.43;13.23;;;;;;;11.01;43.78;102153.19;3785482;76;99614;-81
2022/03/17 14:14:30;;;;;;;32.67;15.20;;;;;;;10.91;43.84;102155.76;3829216;75;98915;-80
2022/03/17 14:19:31;;;;;;;31.77;15.10;;;;;;;10.94;44.93;102154.28;3830111;76;99206;-80
2022/03/17 14:24:33;;;;;;;42.40;18.00;;;;;;;11.00;45.27;102147.41;3846570;76;99129;-80
2022/03/17 14:29:34;;;;;;;29.27;17.60;;;;;;;10.99;45.37;102157.64;3837996;76;99280;-80
2022/03/17 14:34:35;;;;;;;27.87;16.20;;;;;;;10.98;44.74;102164.30;3830588;76;99090;-80
2022/03/17 14:39:43;;;;;;;27.50;14.30;;;;;;;10.86;44.73;102164.23;3830227;75;99778;-80
2022/03/17 14:44:41;;;;;;;29.67;17.02;;;;;;;10.81;45.29;102158.95;3797287;76;99413;-80
2022/03/17 14:49:42;;;;;;;31.77;16.82;;;;;;;10.78;45.84;102164.30;3825808;76;99200;-79
2022/03/17 14:54:43;;;;;;;30.90;16.83;;;;;;;10.76;46.09;102170.17;3857757;75;99115;-81
2022/03/17 14:59:44;;;;;;;29.63;17.23;;;;;;;10.76;46.48;102174.30;3832017;75;99232;-81
2022/03/17 15:04:44;;;;;;;29.60;17.40;;;;;;;10.72;46.27;102176.66;3830896;76;99541;-81
2022/03/17 15:09:46;;;;;;;31.63;18.23;;;;;;;10.67;46.69;102173.55;3814796;76;98916;-79
2022/03/17 15:14:47;;;;;;;32.03;17.97;;;;;;;10.63;46.77;102176.73;3831011;76;99337;-80
2022/03/17 15:19:48;;;;;;;33.78;17.15;;;;;;;10.58;46.99;102178.89;3808257;76;99778;-79
2022/03/17 15:24:49;;;;;;;30.80;17.50;;;;;;;10.50;47.18;102178.36;3837327;76;99506;-79
2022/03/17 15:30:08;;;;;;;35.87;18.70;;;;;;;10.41;46.87;102185.30;3822856;76;99121;-79
2022/03/17 15:35:12;;;;;;;35.60;19.77;;;;;;;10.34;47.63;102178.70;3763891;77;99066;-81
2022/03/17 15:40:18;;;;;;;31.60;17.95;;;;;;;10.25;47.93;102178.75;3709473;77;99300;-81
2022/03/17 15:45:19;;;;;;;30.85;18.32;;;;;;;10.16;47.66;102184.07;3705908;78;98922;-80
2022/03/17 15:50:21;;;;;;;34.10;18.23;;;;;;;10.06;48.19;102185.27;3714564;78;99019;-80
2022/03/17 15:55:23;;;;;;;39.43;18.97;;;;;;;9.99;48.54;102184.95;3708957;78;98374;-80
2022/03/17 16:00:30;;;;;;;31.55;17.50;;;;;;;9.93;49.16;102179.36;3715204;78;99009;-80
2022/03/17 16:05:32;;;;;;;30.25;17.20;;;;;;;9.87;49.43;102178.52;3733659;77;98888;-79
2022/03/17 16:15:59;;;;;;;34.38;17.73;;;;;;;9.70;49.77;102178.59;3744825;78;34939;-79
2022/03/17 16:21:03;;;;;;;37.58;19.65;;;;;;;9.64;49.90;102181.25;3700214;78;98604;-79
2022/03/17 16:26:04;;;;;;;33.88;17.45;;;;;;;9.58;50.01;102195.75;3747160;77;98649;-80
2022/03/17 16:31:14;;;;;;;49.00;20.90;;;;;;;9.51;49.87;102198.77;3710407;77;98794;-79
2022/03/17 16:36:18;;;;;;;36.85;17.82;;;;;;;9.45;49.84;102205.56;3722774;77;98782;-79
2022/03/17 16:41:19;;;;;;;28.62;17.17;;;;;;;9.39;50.20;102205.50;3695159;78;99191;-81
2022/03/17 16:46:20;;;;;;;29.30;17.07;;;;;;;9.28;50.31;102206.39;3720449;78;26084;-80
2022/03/17 16:51:23;;;;;;;30.07;16.37;;;;;;;9.18;50.17;102206.75;3764759;77;98673;-81
2022/03/17 16:56:24;;;;;;;36.48;18.40;;;;;;;9.09;50.66;102211.43;3760012;77;98775;-80
2022/03/17 17:01:25;;;;;;;35.77;20.23;;;;;;;9.00;50.68;102212.57;3755258;77;99043;-81
2022/03/17 17:06:28;;;;;;;39.47;21.57;;;;;;;8.94;50.85;102220.73;3767344;77;98794;-81
2022/03/17 17:11:29;;;;;;;36.70;20.82;;;;;;;8.84;50.77;102227.32;3761724;76;98834;-81
2022/03/17 17:16:32;;;;;;;36.75;20.30;;;;;;;8.76;51.55;102224.02;3734597;77;98896;-80
2022/03/17 17:21:33;;;;;;;43.68;20.60;;;;;;;8.67;51.54;102225.93;3802882;76;98421;-81
2022/03/17 17:31:54;;;;;;;41.73;19.12;;;;;;;8.53;51.33;102236.80;3754497;77;98635;-79
2022/03/17 17:36:58;;;;;;;35.33;17.57;;;;;;;8.49;51.40;102245.42;3762184;77;98727;-81
2022/03/17 17:41:59;;;;;;;32.90;17.40;;;;;;;8.45;51.44;102256.23;3753717;77;98773;-81
2022/03/17 17:47:02;;;;;;;35.70;18.23;;;;;;;8.41;51.76;102253.08;3777048;77;98674;-81
2022/03/17 17:52:04;;;;;;;37.08;19.37;;;;;;;8.35;51.79;102263.38;3767992;77;34728;-79
2022/03/17 17:57:05;;;;;;;37.70;20.15;;;;;;;8.30;51.62;102260.77;3790318;76;98935;-82
2022/03/17 18:02:07;;;;;;;39.33;20.37;;;;;;;8.25;51.61;102259.58;3731676;76;98684;-83
2022/03/17 18:07:08;;;;;;;40.65;23.27;;;;;;;8.21;51.87;102258.58;3812530;75;99186;-84
2022/03/17 18:12:10;;;;;;;40.67;22.37;;;;;;;8.16;52.07;102257.31;3829465;76;98886;-81
2022/03/17 18:17:11;;;;;;;38.80;22.05;;;;;;;8.12;52.43;102262.39;3796834;76;98771;-80
2022/03/17 18:22:14;;;;;;;43.23;21.03;;;;;;;8.07;52.29;102267.42;3766898;77;26396;-83
2022/03/17 18:27:15;;;;;;;39.23;21.23;;;;;;;8.01;52.35;102278.87;3754956;77;99095;-81
2022/03/17 18:32:16;;;;;;;39.03;18.40;;;;;;;7.98;52.05;102289.08;3758461;76;98593;-81
2022/03/17 18:37:17;;;;;;;37.65;21.93;;;;;;;7.94;52.19;102294.94;3740268;77;98855;-81
2022/03/17 18:42:18;;;;;;;43.20;20.33;;;;;;;7.90;52.64;102296.71;3775680;77;98782;-81
2022/03/17 18:47:19;;;;;;;40.07;19.97;;;;;;;7.87;52.28;102305.55;3741833;77;98887;-81
2022/03/17 18:52:21;;;;;;;41.87;19.97;;;;;;;7.83;53.03;102308.66;3749607;77;25778;-82
2022/03/17 18:57:22;;;;;;;39.57;20.30;;;;;;;7.81;53.09;102317.19;3764245;77;98729;-81
2022/03/17 19:02:23;;;;;;;38.30;20.97;;;;;;;7.76;53.18;102325.56;3777774;77;99051;-82
2022/03/17 19:07:25;;;;;;;38.87;22.37;;;;;;;7.72;52.96;102335.53;3727468;77;98853;-82
2022/03/17 19:12:26;;;;;;;35.30;19.27;;;;;;;7.73;53.15;102343.17;3770887;76;98791;-82
2022/03/17 19:17:27;;;;;;;37.30;20.90;;;;;;;7.69;53.26;102342.98;3745889;77;98969;-82
2022/03/17 19:22:30;;;;;;;38.73;20.23;;;;;;;7.67;53.31;102354.02;3732575;78;98853;-81
2022/03/17 19:27:33;;;;;;;38.33;20.17;;;;;;;7.62;53.11;102358.24;3733898;77;98800;-81
2022/03/17 19:32:36;;;;;;;42.67;24.80;;;;;;;7.58;53.50;102368.23;3789014;77;98691;-81
2022/03/17 19:37:37;;;;;;;38.40;21.10;;;;;;;7.55;53.42;102376.50;3734653;77;99282;-81
2022/03/17 19:42:38;;;;;;;36.20;19.97;;;;;;;7.51;53.94;102391.94;3812231;77;99260;-81
2022/03/17 19:47:39;;;;;;;34.83;19.17;;;;;;;7.47;53.80;102399.72;3759837;77;98792;-82
2022/03/17 19:52:40;;;;;;;33.63;18.60;;;;;;;7.40;54.06;102393.28;3731120;77;98760;-80
2022/03/17 19:57:41;;;;;;;39.70;20.20;;;;;;;7.37;54.19;102394.47;3723834;77;98623;-82
2022/03/17 20:07:45;;;;;;;34.30;18.97;;;;;;;7.30;54.52;102405.04;3840841;74;25680;-81
2022/03/17 20:18:07;;;;;;;36.50;20.45;;;;;;;7.18;54.53;102419.24;3699093;78;98831;-81
2022/03/17 20:23:08;;;;;;;33.23;17.62;;;;;;;7.15;54.69;102422.58;3701361;77;99189;-80
2022/03/17 20:28:11;;;;;;;40.47;19.90;;;;;;;7.11;54.63;102428.98;3653693;78;98749;-80
2022/03/17 20:33:13;;;;;;;42.50;21.85;;;;;;;7.08;54.83;102435.05;3645494;79;98954;-82
2022/03/17 20:38:14;;;;;;;40.00;20.17;;;;;;;7.03;54.96;102446.14;3696773;77;98704;-83
2022/03/17 20:43:17;;;;;;;43.17;22.53;;;;;;;6.99;55.22;102450.02;3699905;79;99250;-83
2022/03/17 20:48:20;;;;;;;42.40;22.58;;;;;;;6.92;55.42;102459.20;3699680;78;98817;-82
2022/03/17 20:53:21;;;;;;;42.62;22.30;;;;;;;6.87;55.60;102456.55;3710318;77;99372;-85
2022/03/17 20:58:23;;;;;;;44.93;23.32;;;;;;;6.82;55.76;102450.37;3705463;77;98767;-84
2022/03/17 21:03:24;;;;;;;44.53;24.47;;;;;;;6.75;56.14;102450.77;3743308;78;98479;-84
2022/03/17 21:08:25;;;;;;;39.83;22.60;;;;;;;6.68;56.32;102435.31;3730507;78;98893;-83
2022/03/17 21:13:26;;;;;;;49.67;25.10;;;;;;;6.61;56.42;102432.72;3712175;78;99186;-83
2022/03/17 21:18:29;;;;;;;47.27;24.93;;;;;;;6.55;56.65;102451.71;3742977;77;98813;-83
2022/03/17 21:23:30;;;;;;;48.30;25.08;;;;;;;6.48;56.88;102447.98;3724187;78;99298;-84
2022/03/17 21:28:35;;;;;;;50.38;24.87;;;;;;;6.44;57.16;102457.90;3701280;77;98814;-84
2022/03/17 21:33:36;;;;;;;51.28;26.00;;;;;;;6.41;57.48;102464.53;3745603;78;31629;-84
2022/03/17 21:38:39;;;;;;;55.67;26.80;;;;;;;6.35;57.71;102472.56;3726424;77;98804;-84
2022/03/17 21:43:41;;;;;;;46.40;26.33;;;;;;;6.32;58.01;102476.70;3741227;77;98829;-84
2022/03/17 21:48:43;;;;;;;52.20;27.22;;;;;;;6.27;58.01;102477.36;3755725;77;98922;-83
2022/03/17 21:53:44;;;;;;;52.62;26.77;;;;;;;6.25;58.16;102485.86;3770929;78;99294;-83
2022/03/17 21:58:45;;;;;;;54.07;26.63;;;;;;;6.24;58.33;102491.08;3767740;78;99193;-82
2022/03/17 22:03:46;;;;;;;54.30;27.80;;;;;;;6.18;58.64;102498.28;3775070;78;25735;-83
2022/03/17 22:08:48;;;;;;;59.40;29.80;;;;;;;6.12;58.96;102487.97;3700380;79;99250;-84
2022/03/17 22:13:49;;;;;;;62.33;28.42;;;;;;;6.06;59.19;102489.73;3714883;79;99077;-84
2022/03/17 22:18:50;;;;;;;62.70;32.97;;;;;;;6.01;59.50;102491.96;3702728;77;98842;-84
2022/03/17 22:23:51;;;;;;;51.17;27.30;;;;;;;5.95;59.55;102495.09;3723461;79;98598;-84
2022/03/17 22:28:53;;;;;;;58.37;29.03;;;;;;;5.89;59.99;102495.70;3727253;79;98846;-83
2022/03/17 22:33:53;;;;;;;54.20;26.33;;;;;;;5.84;59.97;102499.08;3715155;79;34913;-84
2022/03/17 22:38:54;;;;;;;59.23;27.93;;;;;;;5.75;60.25;102507.09;3736090;79;98926;-84
2022/03/17 22:43:55;;;;;;;55.95;28.10;;;;;;;5.70;60.28;102512.63;3711081;76;98673;-84
2022/03/17 22:48:56;;;;;;;62.83;30.33;;;;;;;5.65;60.37;102511.33;3628090;79;98873;-84
2022/03/17 22:53:59;;;;;;;58.93;29.80;;;;;;;5.58;60.56;102522.34;3611202;81;99240;-84
2022/03/17 22:59:00;;;;;;;60.10;28.67;;;;;;;5.49;60.68;102524.92;3594029;79;98842;-84
2022/03/17 23:04:02;;;;;;;55.30;28.13;;;;;;;5.40;60.76;102510.27;3658536;80;35954;-83
2022/03/17 23:09:03;;;;;;;53.90;27.07;;;;;;;5.32;61.19;102510.94;3680758;78;98533;-83
2022/03/17 23:14:04;;;;;;;50.23;24.90;;;;;;;5.27;61.15;102503.34;3717567;78;98685;-84
2022/03/17 23:19:05;;;;;;;46.23;23.98;;;;;;;5.23;61.33;102513.23;3726985;78;99304;-84
2022/03/17 23:24:07;;;;;;;46.90;24.20;;;;;;;5.18;61.35;102511.93;3702471;79;99233;-84
2022/03/17 23:29:08;;;;;;;41.30;21.40;;;;;;;5.12;61.38;102510.37;3701335;79;99142;-84
2022/03/17 23:34:11;;;;;;;46.87;22.73;;;;;;;5.07;61.38;102511.78;3703552;79;34860;-84
2022/03/17 23:39:12;;;;;;;43.80;20.77;;;;;;;5.02;61.02;102509.91;3688545;79;98977;-84
2022/03/17 23:44:14;;;;;;;37.90;19.87;;;;;;;4.97;61.25;102515.41;3694954;78;98940;-85
2022/03/17 23:49:15;;;;;;;40.23;20.13;;;;;;;4.95;61.05;102524.98;3694902;79;98823;-84